sensor_id;sensor_type;location;lat;lon;timestamp;pressure;altitude;pressure_sealevel;temperature;humidity
12471;BME280;36499;46.484;13.832;2024-02-15T00:00:20;93727.28;;;-0.33;100.00
12471;BME280;36499;46.484;13.832;2024-02-15T00:02:48;93728.81;;;-0.43;100.00
12471;BME280;36499;46.484;13.832;2024-02-15T00:05:16;93733.19;;;-0.32;100.00
12471;BME280;36499;46.484;13.832;2024-02-15T00:07:43;93729.13;;;-0.48;100.00
12471;BME280;36499;46.484;13.832;2024-02-15T00:10:14;93733.63;;;-0.51;100.00
12471;BME280;36499;46.484;13.832;2024-02-15T00:12:41;93734.03;;;-0.44;100.00
12471;BME280;36499;46.484;13.832;2024-02-15T00:15:08;93735.66;;;-0.43;100.00
12471;BME280;36499;46.484;13.832;2024-02-15T00:17:36;93735.88;;;-0.47;100.00
12471;BME280;36499;46.484;13.832;2024-02-15T00:20:03;93742.06;;;-0.38;100.00
12471;BME280;36499;46.484;13.832;2024-02-15T00:22:36;93730.94;;;-0.37;100.00
12471;BME280;36499;46.484;13.832;2024-02-15T00:25:03;93734.84;;;-0.31;100.00
12471;BME280;36499;46.484;13.832;2024-02-15T00:27:31;93735.03;;;-0.34;100.00
12471;BME280;36499;46.484;13.832;2024-02-15T00:30:00;93740.53;;;-0.40;100.00
12471;BME280;36499;46.484;13.832;2024-02-15T00:32:27;93741.59;;;-0.43;100.00
12471;BME280;36499;46.484;13.832;2024-02-15T00:34:54;93746.91;;;-0.46;100.00
12471;BME280;36499;46.484;13.832;2024-02-15T00:37:21;93744.25;;;-0.44;100.00
12471;BME280;36499;46.484;13.832;2024-02-15T00:39:49;93747.63;;;-0.44;100.00
12471;BME280;36499;46.484;13.832;2024-02-15T00:42:16;93752.31;;;-0.51;100.00
12471;BME280;36499;46.484;13.832;2024-02-15T00:44:43;93741.47;;;-0.54;100.00
12471;BME280;36499;46.484;13.832;2024-02-15T00:47:10;93743.19;;;-0.55;100.00
12471;BME280;36499;46.484;13.832;2024-02-15T00:49:37;93746.28;;;-0.50;100.00
12471;BME280;36499;46.484;13.832;2024-02-15T00:52:05;93741.50;;;-0.41;100.00
12471;BME280;36499;46.484;13.832;2024-02-15T00:54:32;93742.19;;;-0.39;100.00
12471;BME280;36499;46.484;13.832;2024-02-15T00:57:00;93735.94;;;-0.35;100.00
12471;BME280;36499;46.484;13.832;2024-02-15T00:59:27;93741.97;;;-0.36;100.00
12471;BME280;36499;46.484;13.832;2024-02-15T01:01:54;93741.38;;;-0.27;100.00
12471;BME280;36499;46.484;13.832;2024-02-15T01:04:21;93741.16;;;-0.37;100.00
12471;BME280;36499;46.484;13.832;2024-02-15T01:06:48;93732.69;;;-0.37;100.00
12471;BME280;36499;46.484;13.832;2024-02-15T01:09:15;93730.53;;;-0.31;100.00
12471;BME280;36499;46.484;13.832;2024-02-15T01:11:41;93727.59;;;-0.25;100.00
12471;BME280;36499;46.484;13.832;2024-02-15T01:14:10;93729.81;;;-0.33;100.00
12471;BME280;36499;46.484;13.832;2024-02-15T01:16:37;93731.06;;;-0.38;100.00
12471;BME280;36499;46.484;13.832;2024-02-15T01:19:04;93720.94;;;-0.40;100.00
12471;BME280;36499;46.484;13.832;2024-02-15T01:21:30;93716.16;;;-0.32;100.00
12471;BME280;36499;46.484;13.832;2024-02-15T01:23:58;93711.34;;;-0.24;100.00
12471;BME280;36499;46.484;13.832;2024-02-15T01:26:26;93708.91;;;-0.25;100.00
12471;BME280;36499;46.484;13.832;2024-02-15T01:28:52;93706.84;;;-0.20;100.00
12471;BME280;36499;46.484;13.832;2024-02-15T01:31:21;93699.91;;;-0.18;100.00
12471;BME280;36499;46.484;13.832;2024-02-15T01:33:48;93695.41;;;-0.27;100.00
12471;BME280;36499;46.484;13.832;2024-02-15T01:36:15;93698.78;;;-0.27;100.00
12471;BME280;36499;46.484;13.832;2024-02-15T01:38:42;93696.53;;;-0.19;100.00
12471;BME280;36499;46.484;13.832;2024-02-15T01:41:09;93693.56;;;-0.13;100.00
12471;BME280;36499;46.484;13.832;2024-02-15T01:43:36;93692.56;;;-0.10;100.00
12471;BME280;36499;46.484;13.832;2024-02-15T01:46:08;93681.38;;;0.04;100.00
12471;BME280;36499;46.484;13.832;2024-02-15T01:48:37;93685.97;;;-0.01;100.00
12471;BME280;36499;46.484;13.832;2024-02-15T01:51:06;93681.88;;;-0.04;100.00
12471;BME280;36499;46.484;13.832;2024-02-15T01:53:33;93679.31;;;0.09;100.00
12471;BME280;36499;46.484;13.832;2024-02-15T01:56:00;93680.22;;;0.20;100.00
12471;BME280;36499;46.484;13.832;2024-02-15T01:58:27;93677.72;;;0.32;100.00
12471;BME280;36499;46.484;13.832;2024-02-15T02:00:58;93668.59;;;0.40;100.00
12471;BME280;36499;46.484;13.832;2024-02-15T02:03:26;93671.97;;;0.41;100.00
12471;BME280;36499;46.484;13.832;2024-02-15T02:05:55;93675.16;;;0.32;100.00
12471;BME280;36499;46.484;13.832;2024-02-15T02:08:22;93676.44;;;0.26;100.00
12471;BME280;36499;46.484;13.832;2024-02-15T02:10:50;93675.94;;;0.21;100.00
12471;BME280;36499;46.484;13.832;2024-02-15T02:13:18;93669.28;;;0.18;100.00
12471;BME280;36499;46.484;13.832;2024-02-15T02:15:45;93664.28;;;0.17;100.00
12471;BME280;36499;46.484;13.832;2024-02-15T02:18:12;93665.50;;;0.24;100.00
12471;BME280;36499;46.484;13.832;2024-02-15T02:20:39;93666.69;;;0.31;100.00
12471;BME280;36499;46.484;13.832;2024-02-15T02:23:13;93667.25;;;0.47;100.00
12471;BME280;36499;46.484;13.832;2024-02-15T02:25:42;93671.75;;;0.44;100.00
12471;BME280;36499;46.484;13.832;2024-02-15T02:28:11;93667.56;;;0.43;100.00
12471;BME280;36499;46.484;13.832;2024-02-15T02:30:38;93661.22;;;0.48;100.00
12471;BME280;36499;46.484;13.832;2024-02-15T02:33:10;93661.31;;;0.47;100.00
12471;BME280;36499;46.484;13.832;2024-02-15T02:35:44;93663.16;;;0.45;100.00
12471;BME280;36499;46.484;13.832;2024-02-15T02:38:13;93662.72;;;0.51;100.00
12471;BME280;36499;46.484;13.832;2024-02-15T02:40:41;93661.81;;;0.52;100.00
12471;BME280;36499;46.484;13.832;2024-02-15T02:43:08;93656.59;;;0.53;100.00
12471;BME280;36499;46.484;13.832;2024-02-15T02:45:35;93659.25;;;0.52;100.00
12471;BME280;36499;46.484;13.832;2024-02-15T02:48:02;93658.81;;;0.58;100.00
12471;BME280;36499;46.484;13.832;2024-02-15T02:50:29;93649.31;;;0.60;100.00
12471;BME280;36499;46.484;13.832;2024-02-15T02:52:56;93650.56;;;0.54;100.00
12471;BME280;36499;46.484;13.832;2024-02-15T02:55:23;93647.19;;;0.54;100.00
12471;BME280;36499;46.484;13.832;2024-02-15T02:57:53;93642.66;;;0.58;100.00
12471;BME280;36499;46.484;13.832;2024-02-15T03:00:21;93639.66;;;0.64;100.00
12471;BME280;36499;46.484;13.832;2024-02-15T03:02:48;93633.06;;;0.72;100.00
12471;BME280;36499;46.484;13.832;2024-02-15T03:05:15;93645.91;;;0.83;100.00
12471;BME280;36499;46.484;13.832;2024-02-15T03:07:42;93647.03;;;0.79;100.00
12471;BME280;36499;46.484;13.832;2024-02-15T03:10:10;93639.91;;;0.72;100.00
12471;BME280;36499;46.484;13.832;2024-02-15T03:12:39;93642.59;;;0.70;100.00
12471;BME280;36499;46.484;13.832;2024-02-15T03:15:08;93646.97;;;0.57;100.00
12471;BME280;36499;46.484;13.832;2024-02-15T03:17:38;93640.53;;;0.51;100.00
12471;BME280;36499;46.484;13.832;2024-02-15T03:20:06;93640.03;;;0.46;100.00
12471;BME280;36499;46.484;13.832;2024-02-15T03:22:37;93648.16;;;0.40;100.00
12471;BME280;36499;46.484;13.832;2024-02-15T03:25:05;93645.19;;;0.34;100.00
12471;BME280;36499;46.484;13.832;2024-02-15T03:27:33;93645.09;;;0.35;100.00
12471;BME280;36499;46.484;13.832;2024-02-15T03:30:01;93640.59;;;0.39;100.00
12471;BME280;36499;46.484;13.832;2024-02-15T03:32:30;93649.06;;;0.39;100.00
12471;BME280;36499;46.484;13.832;2024-02-15T03:34:58;93637.09;;;0.40;100.00
12471;BME280;36499;46.484;13.832;2024-02-15T03:37:26;93634.66;;;0.38;100.00
12471;BME280;36499;46.484;13.832;2024-02-15T03:39:53;93645.59;;;0.40;100.00
12471;BME280;36499;46.484;13.832;2024-02-15T03:42:20;93649.34;;;0.47;100.00
12471;BME280;36499;46.484;13.832;2024-02-15T03:44:46;93646.56;;;0.50;100.00
12471;BME280;36499;46.484;13.832;2024-02-15T03:47:13;93642.44;;;0.61;100.00
12471;BME280;36499;46.484;13.832;2024-02-15T03:49:42;93649.94;;;0.75;100.00
12471;BME280;36499;46.484;13.832;2024-02-15T03:52:08;93648.72;;;0.68;100.00
12471;BME280;36499;46.484;13.832;2024-02-15T03:54:36;93642.91;;;0.66;100.00
12471;BME280;36499;46.484;13.832;2024-02-15T03:57:03;93643.03;;;0.64;100.00
12471;BME280;36499;46.484;13.832;2024-02-15T03:59:32;93638.38;;;0.58;100.00
12471;BME280;36499;46.484;13.832;2024-02-15T04:02:00;93640.81;;;0.60;100.00
12471;BME280;36499;46.484;13.832;2024-02-15T04:04:28;93644.94;;;0.73;100.00
12471;BME280;36499;46.484;13.832;2024-02-15T04:06:57;93643.88;;;0.76;100.00
12471;BME280;36499;46.484;13.832;2024-02-15T04:09:24;93641.16;;;0.66;100.00
12471;BME280;36499;46.484;13.832;2024-02-15T04:11:50;93637.44;;;0.59;100.00
12471;BME280;36499;46.484;13.832;2024-02-15T04:14:18;93640.56;;;0.63;100.00
12471;BME280;36499;46.484;13.832;2024-02-15T04:16:45;93642.81;;;0.67;100.00
12471;BME280;36499;46.484;13.832;2024-02-15T04:19:12;93631.44;;;0.47;100.00
12471;BME280;36499;46.484;13.832;2024-02-15T04:21:39;93631.66;;;0.44;100.00
12471;BME280;36499;46.484;13.832;2024-02-15T04:24:07;93632.06;;;0.51;100.00
12471;BME280;36499;46.484;13.832;2024-02-15T04:26:34;93636.75;;;0.57;100.00
12471;BME280;36499;46.484;13.832;2024-02-15T04:29:02;93632.34;;;0.70;100.00
12471;BME280;36499;46.484;13.832;2024-02-15T04:31:29;93635.84;;;0.69;100.00
12471;BME280;36499;46.484;13.832;2024-02-15T04:33:58;93627.66;;;0.53;100.00
12471;BME280;36499;46.484;13.832;2024-02-15T04:36:24;93635.31;;;0.53;100.00
12471;BME280;36499;46.484;13.832;2024-02-15T04:38:52;93632.47;;;0.45;100.00
12471;BME280;36499;46.484;13.832;2024-02-15T04:41:20;93628.41;;;0.42;100.00
12471;BME280;36499;46.484;13.832;2024-02-15T04:43:48;93626.88;;;0.40;100.00
12471;BME280;36499;46.484;13.832;2024-02-15T04:46:15;93620.94;;;0.39;100.00
12471;BME280;36499;46.484;13.832;2024-02-15T04:48:42;93623.56;;;0.50;100.00
12471;BME280;36499;46.484;13.832;2024-02-15T04:51:10;93624.78;;;0.58;100.00
12471;BME280;36499;46.484;13.832;2024-02-15T04:53:37;93632.53;;;0.56;100.00
12471;BME280;36499;46.484;13.832;2024-02-15T04:56:05;93637.91;;;0.64;100.00
12471;BME280;36499;46.484;13.832;2024-02-15T04:58:38;93638.25;;;0.60;100.00
12471;BME280;36499;46.484;13.832;2024-02-15T05:01:12;93635.53;;;0.50;100.00
12471;BME280;36499;46.484;13.832;2024-02-15T05:03:39;93638.19;;;0.48;100.00
12471;BME280;36499;46.484;13.832;2024-02-15T05:06:07;93637.63;;;0.32;100.00
12471;BME280;36499;46.484;13.832;2024-02-15T05:08:36;93636.81;;;0.32;100.00
12471;BME280;36499;46.484;13.832;2024-02-15T05:11:03;93633.63;;;0.41;100.00
12471;BME280;36499;46.484;13.832;2024-02-15T05:13:32;93637.66;;;0.56;100.00
12471;BME280;36499;46.484;13.832;2024-02-15T05:16:00;93631.91;;;0.76;100.00
12471;BME280;36499;46.484;13.832;2024-02-15T05:18:27;93643.34;;;0.83;100.00
12471;BME280;36499;46.484;13.832;2024-02-15T05:20:56;93640.56;;;0.86;100.00
12471;BME280;36499;46.484;13.832;2024-02-15T05:23:22;93639.97;;;0.83;100.00
12471;BME280;36499;46.484;13.832;2024-02-15T05:25:49;93653.34;;;0.63;100.00
12471;BME280;36499;46.484;13.832;2024-02-15T05:28:16;93646.69;;;0.49;100.00
12471;BME280;36499;46.484;13.832;2024-02-15T05:30:44;93658.66;;;0.48;100.00
12471;BME280;36499;46.484;13.832;2024-02-15T05:33:12;93654.88;;;0.65;100.00
12471;BME280;36499;46.484;13.832;2024-02-15T05:35:39;93650.97;;;0.72;100.00
12471;BME280;36499;46.484;13.832;2024-02-15T05:38:07;93654.88;;;0.65;100.00
12471;BME280;36499;46.484;13.832;2024-02-15T05:40:36;93656.88;;;0.62;100.00
12471;BME280;36499;46.484;13.832;2024-02-15T05:43:03;93662.03;;;0.49;100.00
12471;BME280;36499;46.484;13.832;2024-02-15T05:45:31;93660.69;;;0.56;100.00
12471;BME280;36499;46.484;13.832;2024-02-15T05:47:59;93660.25;;;0.62;100.00
12471;BME280;36499;46.484;13.832;2024-02-15T05:50:28;93662.72;;;0.75;100.00
12471;BME280;36499;46.484;13.832;2024-02-15T05:52:56;93668.72;;;0.86;100.00
12471;BME280;36499;46.484;13.832;2024-02-15T05:55:24;93673.50;;;0.91;100.00
12471;BME280;36499;46.484;13.832;2024-02-15T05:57:52;93676.50;;;0.85;100.00
12471;BME280;36499;46.484;13.832;2024-02-15T06:00:20;93676.00;;;0.80;100.00
12471;BME280;36499;46.484;13.832;2024-02-15T06:02:47;93671.81;;;0.79;100.00
12471;BME280;36499;46.484;13.832;2024-02-15T06:05:15;93667.88;;;0.86;100.00
12471;BME280;36499;46.484;13.832;2024-02-15T06:07:43;93674.84;;;0.84;100.00
12471;BME280;36499;46.484;13.832;2024-02-15T06:10:11;93671.03;;;0.66;100.00
12471;BME280;36499;46.484;13.832;2024-02-15T06:12:38;93681.50;;;0.63;100.00
12471;BME280;36499;46.484;13.832;2024-02-15T06:15:06;93677.69;;;0.68;100.00
12471;BME280;36499;46.484;13.832;2024-02-15T06:17:40;93675.84;;;0.70;100.00
12471;BME280;36499;46.484;13.832;2024-02-15T06:20:11;93674.59;;;0.76;100.00
12471;BME280;36499;46.484;13.832;2024-02-15T06:22:39;93680.63;;;0.75;100.00
12471;BME280;36499;46.484;13.832;2024-02-15T06:25:08;93686.78;;;0.72;100.00
12471;BME280;36499;46.484;13.832;2024-02-15T06:27:36;93688.13;;;0.65;100.00
12471;BME280;36499;46.484;13.832;2024-02-15T06:30:07;93684.00;;;0.75;100.00
12471;BME280;36499;46.484;13.832;2024-02-15T06:32:52;93681.59;;;0.85;100.00
12471;BME280;36499;46.484;13.832;2024-02-15T06:35:37;93683.41;;;0.96;100.00
12471;BME280;36499;46.484;13.832;2024-02-15T06:38:21;93686.28;;;0.91;100.00
12471;BME280;36499;46.484;13.832;2024-02-15T06:41:07;93692.13;;;0.93;100.00
12471;BME280;36499;46.484;13.832;2024-02-15T06:43:34;93698.28;;;1.02;100.00
12471;BME280;36499;46.484;13.832;2024-02-15T06:46:01;93697.53;;;1.12;100.00
12471;BME280;36499;46.484;13.832;2024-02-15T06:48:28;93700.19;;;1.11;100.00
12471;BME280;36499;46.484;13.832;2024-02-15T06:50:56;93699.56;;;1.31;100.00
12471;BME280;36499;46.484;13.832;2024-02-15T06:53:23;93701.88;;;1.34;100.00
12471;BME280;36499;46.484;13.832;2024-02-15T06:55:50;93705.84;;;1.27;100.00
12471;BME280;36499;46.484;13.832;2024-02-15T06:58:18;93708.84;;;1.32;100.00
12471;BME280;36499;46.484;13.832;2024-02-15T07:00:47;93699.56;;;1.31;100.00
12471;BME280;36499;46.484;13.832;2024-02-15T07:03:15;93702.69;;;1.35;100.00
12471;BME280;36499;46.484;13.832;2024-02-15T07:05:42;93706.13;;;1.46;100.00
12471;BME280;36499;46.484;13.832;2024-02-15T07:08:09;93703.09;;;1.52;100.00
12471;BME280;36499;46.484;13.832;2024-02-15T07:10:39;93701.50;;;1.63;100.00
12471;BME280;36499;46.484;13.832;2024-02-15T07:13:06;93703.13;;;1.64;100.00
12471;BME280;36499;46.484;13.832;2024-02-15T07:15:34;93693.22;;;1.70;100.00
12471;BME280;36499;46.484;13.832;2024-02-15T07:18:04;93697.91;;;1.76;100.00
12471;BME280;36499;46.484;13.832;2024-02-15T07:20:31;93705.25;;;1.81;100.00
12471;BME280;36499;46.484;13.832;2024-02-15T07:22:58;93696.41;;;1.85;100.00
12471;BME280;36499;46.484;13.832;2024-02-15T07:25:25;93697.00;;;2.00;100.00
12471;BME280;36499;46.484;13.832;2024-02-15T07:27:52;93684.41;;;2.19;100.00
12471;BME280;36499;46.484;13.832;2024-02-15T07:30:19;93685.97;;;2.42;100.00
12471;BME280;36499;46.484;13.832;2024-02-15T07:32:48;93686.56;;;2.57;100.00
12471;BME280;36499;46.484;13.832;2024-02-15T07:35:15;93683.88;;;2.58;100.00
12471;BME280;36499;46.484;13.832;2024-02-15T07:37:51;93685.75;;;2.56;100.00
12471;BME280;36499;46.484;13.832;2024-02-15T07:40:19;93677.94;;;2.58;100.00
12471;BME280;36499;46.484;13.832;2024-02-15T07:42:47;93675.47;;;2.68;100.00
12471;BME280;36499;46.484;13.832;2024-02-15T07:45:14;93672.97;;;2.77;100.00
12471;BME280;36499;46.484;13.832;2024-02-15T07:47:41;93670.38;;;2.88;100.00
12471;BME280;36499;46.484;13.832;2024-02-15T07:50:10;93669.69;;;3.07;100.00
12471;BME280;36499;46.484;13.832;2024-02-15T07:52:38;93671.16;;;3.21;100.00
12471;BME280;36499;46.484;13.832;2024-02-15T07:55:05;93668.78;;;3.29;100.00
12471;BME280;36499;46.484;13.832;2024-02-15T07:57:34;93673.84;;;3.19;100.00
12471;BME280;36499;46.484;13.832;2024-02-15T08:00:01;93670.47;;;3.19;100.00
12471;BME280;36499;46.484;13.832;2024-02-15T08:02:31;93667.47;;;3.35;100.00
12471;BME280;36499;46.484;13.832;2024-02-15T08:04:58;93671.25;;;3.31;100.00
12471;BME280;36499;46.484;13.832;2024-02-15T08:07:27;93663.97;;;3.36;100.00
12471;BME280;36499;46.484;13.832;2024-02-15T08:09:57;93666.53;;;3.36;100.00
12471;BME280;36499;46.484;13.832;2024-02-15T08:12:25;93657.38;;;3.43;100.00
12471;BME280;36499;46.484;13.832;2024-02-15T08:14:52;93664.09;;;3.55;100.00
12471;BME280;36499;46.484;13.832;2024-02-15T08:17:19;93661.47;;;3.76;100.00
12471;BME280;36499;46.484;13.832;2024-02-15T08:19:45;93651.69;;;3.90;100.00
12471;BME280;36499;46.484;13.832;2024-02-15T08:22:12;93652.59;;;4.10;97.02
12471;BME280;36499;46.484;13.832;2024-02-15T08:24:40;93651.59;;;4.32;97.70
12471;BME280;36499;46.484;13.832;2024-02-15T08:27:10;93654.59;;;4.47;96.59
12471;BME280;36499;46.484;13.832;2024-02-15T08:29:37;93645.31;;;4.65;98.00
12471;BME280;36499;46.484;13.832;2024-02-15T08:32:04;93648.16;;;4.81;96.95
12471;BME280;36499;46.484;13.832;2024-02-15T08:34:33;93643.16;;;4.99;95.70
12471;BME280;36499;46.484;13.832;2024-02-15T08:37:00;93641.53;;;5.17;94.46
12471;BME280;36499;46.484;13.832;2024-02-15T08:39:28;93640.16;;;5.33;93.52
12471;BME280;36499;46.484;13.832;2024-02-15T08:41:56;93634.72;;;5.45;90.56
12471;BME280;36499;46.484;13.832;2024-02-15T08:44:24;93628.06;;;5.52;89.46
12471;BME280;36499;46.484;13.832;2024-02-15T08:46:51;93633.88;;;5.64;87.97
12471;BME280;36499;46.484;13.832;2024-02-15T08:49:18;93624.69;;;5.89;86.85
12471;BME280;36499;46.484;13.832;2024-02-15T08:51:44;93623.59;;;5.91;85.81
12471;BME280;36499;46.484;13.832;2024-02-15T08:54:11;93616.38;;;6.05;84.75
12471;BME280;36499;46.484;13.832;2024-02-15T08:56:38;93616.38;;;6.32;84.45
12471;BME280;36499;46.484;13.832;2024-02-15T08:59:06;93608.75;;;6.58;81.55
12471;BME280;36499;46.484;13.832;2024-02-15T09:01:33;93603.09;;;6.90;84.71
12471;BME280;36499;46.484;13.832;2024-02-15T09:04:00;93605.03;;;7.06;81.32
12471;BME280;36499;46.484;13.832;2024-02-15T09:06:27;93599.38;;;7.28;86.30
12471;BME280;36499;46.484;13.832;2024-02-15T09:08:54;93598.00;;;8.19;87.85
12471;BME280;36499;46.484;13.832;2024-02-15T09:11:22;93603.19;;;8.70;84.51
12471;BME280;36499;46.484;13.832;2024-02-15T09:13:49;93598.38;;;8.99;84.75
12471;BME280;36499;46.484;13.832;2024-02-15T09:16:18;93591.44;;;9.08;81.22
12471;BME280;36499;46.484;13.832;2024-02-15T09:18:47;93593.69;;;8.94;65.83
12471;BME280;36499;46.484;13.832;2024-02-15T09:21:14;93592.06;;;8.85;60.91
12471;BME280;36499;46.484;13.832;2024-02-15T09:23:41;93591.88;;;8.79;63.25
12471;BME280;36499;46.484;13.832;2024-02-15T09:26:07;93585.09;;;8.86;63.52
12471;BME280;36499;46.484;13.832;2024-02-15T09:28:35;93597.25;;;8.85;58.62
12471;BME280;36499;46.484;13.832;2024-02-15T09:31:02;93592.72;;;8.87;57.20
12471;BME280;36499;46.484;13.832;2024-02-15T09:33:30;93597.56;;;8.99;56.24
12471;BME280;36499;46.484;13.832;2024-02-15T09:35:57;93595.16;;;9.05;55.10
12471;BME280;36499;46.484;13.832;2024-02-15T09:38:24;93599.56;;;9.21;55.08
12471;BME280;36499;46.484;13.832;2024-02-15T09:40:51;93598.56;;;9.38;55.96
12471;BME280;36499;46.484;13.832;2024-02-15T09:43:18;93607.66;;;9.42;51.71
12471;BME280;36499;46.484;13.832;2024-02-15T09:45:46;93612.34;;;9.47;50.68
12471;BME280;36499;46.484;13.832;2024-02-15T09:48:15;93606.03;;;9.49;50.30
12471;BME280;36499;46.484;13.832;2024-02-15T09:50:45;93610.09;;;9.60;49.49
12471;BME280;36499;46.484;13.832;2024-02-15T09:53:12;93595.28;;;9.69;49.17
12471;BME280;36499;46.484;13.832;2024-02-15T09:55:40;93599.81;;;9.83;48.41
12471;BME280;36499;46.484;13.832;2024-02-15T09:58:09;93600.78;;;9.90;48.97
12471;BME280;36499;46.484;13.832;2024-02-15T10:00:38;93595.69;;;10.21;49.66
12471;BME280;36499;46.484;13.832;2024-02-15T10:03:06;93600.88;;;10.29;48.12
12471;BME280;36499;46.484;13.832;2024-02-15T10:05:33;93596.75;;;10.35;48.20
12471;BME280;36499;46.484;13.832;2024-02-15T10:08:02;93592.91;;;10.31;46.60
12471;BME280;36499;46.484;13.832;2024-02-15T10:10:30;93593.56;;;10.24;47.46
12471;BME280;36499;46.484;13.832;2024-02-15T10:12:59;93589.19;;;10.25;47.35
12471;BME280;36499;46.484;13.832;2024-02-15T10:15:31;93584.63;;;10.66;51.59
12471;BME280;36499;46.484;13.832;2024-02-15T10:17:59;93577.44;;;10.99;56.71
12471;BME280;36499;46.484;13.832;2024-02-15T10:20:27;93570.84;;;11.34;55.12
12471;BME280;36499;46.484;13.832;2024-02-15T10:23:10;93566.44;;;11.72;55.71
12471;BME280;36499;46.484;13.832;2024-02-15T10:25:37;93566.75;;;12.36;48.47
12471;BME280;36499;46.484;13.832;2024-02-15T10:28:05;93562.66;;;12.48;46.61
12471;BME280;36499;46.484;13.832;2024-02-15T10:30:33;93563.94;;;12.67;44.40
12471;BME280;36499;46.484;13.832;2024-02-15T10:33:01;93560.41;;;12.75;43.67
12471;BME280;36499;46.484;13.832;2024-02-15T10:35:28;93555.91;;;13.05;42.55
12471;BME280;36499;46.484;13.832;2024-02-15T10:38:05;93554.47;;;13.23;43.83
12471;BME280;36499;46.484;13.832;2024-02-15T10:40:34;93559.31;;;13.26;43.10
12471;BME280;36499;46.484;13.832;2024-02-15T10:43:03;93556.94;;;13.32;43.69
12471;BME280;36499;46.484;13.832;2024-02-15T10:45:31;93548.75;;;13.35;44.61
12471;BME280;36499;46.484;13.832;2024-02-15T10:47:58;93552.63;;;13.67;43.98
12471;BME280;36499;46.484;13.832;2024-02-15T10:50:25;93540.91;;;13.84;40.58
12471;BME280;36499;46.484;13.832;2024-02-15T10:52:54;93533.19;;;14.04;42.90
12471;BME280;36499;46.484;13.832;2024-02-15T10:55:28;93522.59;;;14.18;41.44
12471;BME280;36499;46.484;13.832;2024-02-15T10:58:01;93511.41;;;14.31;41.67
12471;BME280;36499;46.484;13.832;2024-02-15T11:00:32;93514.81;;;14.25;41.07
12471;BME280;36499;46.484;13.832;2024-02-15T11:03:03;93504.59;;;14.37;39.87
12471;BME280;36499;46.484;13.832;2024-02-15T11:05:32;93505.38;;;14.31;39.92
12471;BME280;36499;46.484;13.832;2024-02-15T11:08:02;93502.97;;;14.29;39.93
12471;BME280;36499;46.484;13.832;2024-02-15T11:10:30;93505.78;;;14.34;39.39
12471;BME280;36499;46.484;13.832;2024-02-15T11:12:58;93498.13;;;14.26;37.92
12471;BME280;36499;46.484;13.832;2024-02-15T11:15:44;93497.03;;;14.07;38.03
12471;BME280;36499;46.484;13.832;2024-02-15T11:18:42;93487.63;;;14.13;38.36
12471;BME280;36499;46.484;13.832;2024-02-15T11:21:11;93484.00;;;14.14;37.75
12471;BME280;36499;46.484;13.832;2024-02-15T11:23:38;93486.19;;;14.10;38.75
12471;BME280;36499;46.484;13.832;2024-02-15T11:26:16;93493.09;;;14.24;38.47
12471;BME280;36499;46.484;13.832;2024-02-15T11:28:55;93484.66;;;14.29;37.94
12471;BME280;36499;46.484;13.832;2024-02-15T11:31:54;93489.72;;;14.37;38.15
12471;BME280;36499;46.484;13.832;2024-02-15T11:34:43;93492.13;;;14.32;38.02
12471;BME280;36499;46.484;13.832;2024-02-15T11:40:12;93484.28;;;14.32;36.85
12471;BME280;36499;46.484;13.832;2024-02-15T11:42:39;93488.53;;;14.40;36.95
12471;BME280;36499;46.484;13.832;2024-02-15T11:45:06;93483.31;;;14.53;36.81
12471;BME280;36499;46.484;13.832;2024-02-15T11:47:37;93482.50;;;14.52;36.79
12471;BME280;36499;46.484;13.832;2024-02-15T11:50:05;93480.53;;;14.61;35.97
12471;BME280;36499;46.484;13.832;2024-02-15T11:52:35;93471.66;;;14.55;35.40
12471;BME280;36499;46.484;13.832;2024-02-15T11:55:06;93476.47;;;14.52;35.21
12471;BME280;36499;46.484;13.832;2024-02-15T11:57:36;93472.47;;;14.56;36.05
12471;BME280;36499;46.484;13.832;2024-02-15T12:00:22;93463.06;;;14.68;35.63
12471;BME280;36499;46.484;13.832;2024-02-15T12:03:09;93462.44;;;14.66;36.47
12471;BME280;36499;46.484;13.832;2024-02-15T12:05:54;93449.78;;;14.70;35.89
12471;BME280;36499;46.484;13.832;2024-02-15T12:08:38;93449.78;;;14.70;37.14
12471;BME280;36499;46.484;13.832;2024-02-15T12:11:22;93455.63;;;14.78;35.92
12471;BME280;36499;46.484;13.832;2024-02-15T12:14:12;93452.44;;;14.83;35.78
12471;BME280;36499;46.484;13.832;2024-02-15T12:17:03;93452.03;;;14.86;36.85
12471;BME280;36499;46.484;13.832;2024-02-15T12:19:50;93446.00;;;14.85;37.48
12471;BME280;36499;46.484;13.832;2024-02-15T12:22:21;93441.56;;;14.86;35.40
12471;BME280;36499;46.484;13.832;2024-02-15T12:24:56;93442.38;;;14.93;35.42
12471;BME280;36499;46.484;13.832;2024-02-15T12:27:23;93440.53;;;14.74;35.11
12471;BME280;36499;46.484;13.832;2024-02-15T12:29:56;93440.28;;;14.62;35.24
12471;BME280;36499;46.484;13.832;2024-02-15T12:32:24;93432.66;;;14.67;35.33
12471;BME280;36499;46.484;13.832;2024-02-15T12:34:53;93429.59;;;14.50;35.66
12471;BME280;36499;46.484;13.832;2024-02-15T12:37:20;93430.84;;;14.48;36.67
12471;BME280;36499;46.484;13.832;2024-02-15T12:39:49;93425.00;;;14.59;36.15
12471;BME280;36499;46.484;13.832;2024-02-15T12:42:16;93425.81;;;14.66;35.91
12471;BME280;36499;46.484;13.832;2024-02-15T12:44:45;93420.56;;;14.59;37.36
12471;BME280;36499;46.484;13.832;2024-02-15T12:47:20;93416.53;;;14.57;37.16
12471;BME280;36499;46.484;13.832;2024-02-15T12:49:47;93408.72;;;14.63;35.78
12471;BME280;36499;46.484;13.832;2024-02-15T12:52:36;93410.50;;;14.56;37.47
12471;BME280;36499;46.484;13.832;2024-02-15T12:55:11;93408.69;;;14.50;36.12
12471;BME280;36499;46.484;13.832;2024-02-15T12:57:39;93406.06;;;14.50;36.84
12471;BME280;36499;46.484;13.832;2024-02-15T13:00:12;93402.84;;;14.55;37.03
12471;BME280;36499;46.484;13.832;2024-02-15T13:02:43;93407.47;;;14.53;36.01